Time;durP1;ratioP1;P1;durP2;ratioP2;P2;SDS_P1;SDS_P2;PMS_P1;PMS_P2;Temp;Humidity;BMP_temperature;BMP_pressure;BME280_temperature;BME280_humidity;BME280_pressure;Samples;Min_cycle;Max_cycle;Signal;HPM_P1;HPM_P2
2023/09/30 00:00:58;;;;;;;13.13;4.53;;;12.70;99.90;;;;;;5061200;28;20078;-71
2023/09/30 00:03:24;;;;;;;19.17;4.47;;;12.70;99.90;;;;;;5064242;28;20068;-71
2023/09/30 00:05:50;;;;;;;12.38;4.63;;;12.70;99.90;;;;;;5060575;28;20563;-71
2023/09/30 00:08:15;;;;;;;16.73;4.68;;;12.70;99.90;;;;;;5061188;28;20033;-71
2023/09/30 00:10:41;;;;;;;16.55;4.75;;;12.70;99.90;;;;;;5065527;28;20033;-71
2023/09/30 00:13:06;;;;;;;14.68;4.03;;;12.70;99.90;;;;;;5068667;28;20530;-71
2023/09/30 00:15:33;;;;;;;13.45;4.47;;;12.70;99.90;;;;;;5065075;28;20095;-71
2023/09/30 00:17:58;;;;;;;14.65;4.43;;;12.70;99.90;;;;;;5064342;28;20043;-71
2023/09/30 00:20:24;;;;;;;13.32;4.28;;;12.60;99.90;;;;;;5069504;28;20040;-71
2023/09/30 00:22:50;;;;;;;15.07;4.85;;;12.60;99.90;;;;;;5069474;28;20064;-71
2023/09/30 00:25:16;;;;;;;13.32;4.45;;;12.60;99.90;;;;;;5067676;28;20072;-70
2023/09/30 00:27:41;;;;;;;14.32;5.00;;;12.60;99.90;;;;;;5067097;28;20041;-71
2023/09/30 00:30:07;;;;;;;11.35;4.13;;;12.70;99.90;;;;;;5068895;28;20048;-71
2023/09/30 00:32:33;;;;;;;12.40;4.13;;;12.60;99.90;;;;;;5062549;28;20051;-71
2023/09/30 00:35:01;;;;;;;14.88;4.03;;;12.60;99.90;;;;;;5061898;28;20119;-71
2023/09/30 00:37:27;;;;;;;13.07;4.40;;;12.70;99.90;;;;;;5065854;28;20545;-70
2023/09/30 00:39:53;;;;;;;13.70;4.30;;;12.60;99.90;;;;;;5061194;28;20063;-71
2023/09/30 00:42:20;;;;;;;14.70;4.28;;;12.60;99.90;;;;;;5059512;28;20044;-71
2023/09/30 00:44:46;;;;;;;16.35;4.40;;;12.60;99.90;;;;;;5060402;28;20040;-71
2023/09/30 00:47:14;;;;;;;14.15;4.20;;;12.60;99.90;;;;;;5068305;28;20318;-70
2023/09/30 00:49:42;;;;;;;17.15;4.40;;;12.60;99.90;;;;;;5062014;28;20101;-70
2023/09/30 00:52:07;;;;;;;10.45;4.00;;;12.60;99.90;;;;;;5060867;28;20041;-71
2023/09/30 00:54:35;;;;;;;14.38;4.15;;;12.60;99.90;;;;;;5063460;28;20093;-71
2023/09/30 00:57:01;;;;;;;20.67;4.45;;;12.60;99.90;;;;;;5063712;28;20045;-71
2023/09/30 00:59:30;;;;;;;15.30;4.80;;;12.60;99.90;;;;;;5069563;28;20048;-71
2023/09/30 01:01:58;;;;;;;19.13;4.72;;;12.60;99.90;;;;;;5063440;28;20108;-70
2023/09/30 01:04:26;;;;;;;12.00;4.25;;;12.50;99.90;;;;;;5065418;28;20509;-71
2023/09/30 01:06:52;;;;;;;14.80;4.22;;;12.50;99.90;;;;;;5067914;28;20494;-71
2023/09/30 01:09:17;;;;;;;20.80;5.25;;;12.50;99.90;;;;;;5072474;28;20036;-70
2023/09/30 01:11:44;;;;;;;16.70;4.55;;;12.50;99.90;;;;;;5063529;28;20487;-70
2023/09/30 01:14:25;;;;;;;14.30;4.47;;;12.50;99.90;;;;;;5063762;28;20544;-71
2023/09/30 01:16:50;;;;;;;13.15;4.35;;;12.50;99.90;;;;;;5062579;28;20123;-71
2023/09/30 01:19:16;;;;;;;12.63;4.82;;;12.50;99.90;;;;;;5073246;28;20068;-71
2023/09/30 01:21:44;;;;;;;14.73;4.43;;;12.50;99.90;;;;;;5067349;28;20500;-71
2023/09/30 01:24:10;;;;;;;13.55;4.60;;;12.40;99.90;;;;;;5064980;28;20076;-70
2023/09/30 01:26:35;;;;;;;14.30;4.28;;;12.40;99.90;;;;;;5067529;28;20064;-70
2023/09/30 01:29:01;;;;;;;18.35;4.28;;;12.40;99.90;;;;;;5069252;28;20041;-71
2023/09/30 01:31:27;;;;;;;16.35;4.35;;;12.40;99.90;;;;;;5072334;28;20487;-71
2023/09/30 01:33:54;;;;;;;13.40;4.38;;;12.50;99.90;;;;;;5067881;28;20040;-71
2023/09/30 01:36:19;;;;;;;13.98;4.72;;;12.50;99.90;;;;;;5064039;28;20045;-70
2023/09/30 01:38:45;;;;;;;15.50;4.47;;;12.50;99.90;;;;;;5072451;28;20025;-71
2023/09/30 01:41:11;;;;;;;21.27;5.05;;;12.50;99.90;;;;;;5070380;28;20094;-71
2023/09/30 01:43:37;;;;;;;17.63;4.97;;;12.50;99.90;;;;;;5072425;28;20483;-71
2023/09/30 01:46:05;;;;;;;14.90;4.88;;;12.50;99.90;;;;;;5069014;28;20180;-71
2023/09/30 01:48:30;;;;;;;13.60;5.10;;;12.50;99.90;;;;;;5070774;28;20102;-71
2023/09/30 01:50:56;;;;;;;15.38;5.05;;;12.50;99.90;;;;;;5058316;28;20037;-70
2023/09/30 01:53:21;;;;;;;16.65;4.38;;;12.50;99.90;;;;;;5077826;28;20509;-70
2023/09/30 01:55:47;;;;;;;13.95;4.47;;;12.40;99.90;;;;;;5065365;28;20437;-71
2023/09/30 01:58:13;;;;;;;15.48;4.60;;;12.40;99.90;;;;;;5060033;28;20513;-71
2023/09/30 02:00:39;;;;;;;11.95;4.28;;;12.40;99.90;;;;;;5072293;28;20040;-71
2023/09/30 02:03:05;;;;;;;15.10;4.68;;;12.40;99.90;;;;;;5068116;28;20047;-70
2023/09/30 02:05:30;;;;;;;20.02;4.95;;;12.40;99.90;;;;;;5062341;28;20029;-71
2023/09/30 02:07:56;;;;;;;14.90;4.57;;;12.40;99.90;;;;;;5071097;28;20054;-71
2023/09/30 02:10:22;;;;;;;15.57;4.90;;;12.40;99.90;;;;;;5061500;28;20028;-71
2023/09/30 02:12:48;;;;;;;14.98;4.63;;;12.40;99.90;;;;;;5062697;28;20035;-70
2023/09/30 02:15:14;;;;;;;13.43;4.97;;;12.30;99.90;;;;;;5058869;28;20032;-70
2023/09/30 02:17:39;;;;;;;14.90;4.68;;;12.30;99.90;;;;;;5067549;28;20113;-70
2023/09/30 02:20:15;;;;;;;10.70;4.32;;;12.30;99.90;;;;;;5055097;28;20037;-71
2023/09/30 02:22:41;;;;;;;12.43;4.30;;;12.30;99.90;;;;;;5063542;28;20068;-70
2023/09/30 02:25:07;;;;;;;17.67;4.85;;;12.30;99.90;;;;;;5068126;28;20486;-70
2023/09/30 02:27:34;;;;;;;9.75;4.50;;;12.30;99.90;;;;;;5071040;28;20033;-70
2023/09/30 02:29:59;;;;;;;16.58;5.15;;;12.30;99.90;;;;;;5068568;28;20043;-70
2023/09/30 02:32:25;;;;;;;14.40;5.20;;;12.30;99.90;;;;;;5071136;28;20037;-71
2023/09/30 02:34:51;;;;;;;14.23;4.72;;;12.30;99.90;;;;;;5069516;28;20037;-71
2023/09/30 02:37:18;;;;;;;11.40;4.80;;;12.30;99.90;;;;;;5071516;28;20039;-71
2023/09/30 02:39:46;;;;;;;13.70;4.82;;;12.30;99.90;;;;;;5064926;28;20502;-70
2023/09/30 02:42:12;;;;;;;15.32;4.93;;;12.30;99.90;;;;;;5063492;28;20048;-70
2023/09/30 02:44:38;;;;;;;16.27;5.50;;;12.30;99.90;;;;;;5063466;28;20029;-70
2023/09/30 02:47:04;;;;;;;14.98;5.43;;;12.30;99.90;;;;;;5059227;28;20036;-70
2023/09/30 02:49:32;;;;;;;14.35;4.85;;;12.30;99.90;;;;;;5063954;28;20170;-71
2023/09/30 02:51:58;;;;;;;16.60;5.82;;;12.30;99.90;;;;;;5070448;28;20075;-70
2023/09/30 02:54:24;;;;;;;14.80;4.57;;;12.20;99.90;;;;;;5070261;28;20501;-70
2023/09/30 02:56:49;;;;;;;15.85;5.60;;;12.20;99.90;;;;;;5071174;28;20032;-71
2023/09/30 02:59:16;;;;;;;14.25;5.05;;;12.20;99.90;;;;;;5065900;28;20047;-71
2023/09/30 03:01:42;;;;;;;13.68;5.07;;;12.20;99.90;;;;;;5062750;28;20097;-70
2023/09/30 03:04:09;;;;;;;9.88;4.55;;;12.20;99.90;;;;;;5067315;28;20482;-71
2023/09/30 03:06:36;;;;;;;18.08;4.78;;;12.10;99.90;;;;;;5063286;28;20090;-71
2023/09/30 03:09:04;;;;;;;13.90;4.88;;;12.20;99.90;;;;;;5070653;28;20044;-70
2023/09/30 03:11:31;;;;;;;17.88;5.15;;;12.10;99.90;;;;;;5066575;28;20044;-71
2023/09/30 03:13:57;;;;;;;16.13;4.90;;;12.10;99.90;;;;;;5063478;28;20043;-70
2023/09/30 03:16:24;;;;;;;14.68;4.65;;;12.20;99.90;;;;;;5060944;28;20068;-70
2023/09/30 03:18:50;;;;;;;15.00;5.13;;;12.20;99.90;;;;;;5062839;28;20040;-71
2023/09/30 03:21:16;;;;;;;17.40;5.47;;;12.20;99.90;;;;;;5066115;28;20071;-71
2023/09/30 03:23:43;;;;;;;14.65;4.82;;;12.20;99.90;;;;;;5061005;28;20482;-71
2023/09/30 03:26:09;;;;;;;13.98;5.00;;;12.10;99.90;;;;;;5068422;28;20433;-71
2023/09/30 03:28:38;;;;;;;20.20;5.60;;;12.10;99.90;;;;;;5068986;28;20044;-70
2023/09/30 03:31:05;;;;;;;16.08;5.25;;;12.10;99.90;;;;;;5064074;28;20094;-71
2023/09/30 03:33:34;;;;;;;11.45;5.13;;;12.10;99.90;;;;;;5058232;28;20044;-69
2023/09/30 03:36:00;;;;;;;14.50;5.32;;;12.10;99.90;;;;;;5061045;28;20036;-71
2023/09/30 03:38:26;;;;;;;14.60;5.53;;;12.10;99.90;;;;;;5062343;28;20040;-70
2023/09/30 03:40:54;;;;;;;11.73;4.82;;;12.10;99.90;;;;;;5060696;28;20037;-71
2023/09/30 03:43:23;;;;;;;17.95;4.95;;;12.00;99.90;;;;;;5054227;28;20040;-70
2023/09/30 03:45:48;;;;;;;17.15;5.40;;;12.10;99.90;;;;;;5065806;28;20078;-71
2023/09/30 03:48:14;;;;;;;13.55;5.10;;;12.00;99.90;;;;;;5069562;28;20098;-70
2023/09/30 03:50:40;;;;;;;11.05;4.90;;;12.00;99.90;;;;;;5064491;28;20483;-70
2023/09/30 03:53:09;;;;;;;14.90;4.85;;;12.00;99.90;;;;;;5070403;28;20116;-70
2023/09/30 03:55:35;;;;;;;11.32;4.72;;;12.00;99.90;;;;;;5069370;28;20074;-70
2023/09/30 03:58:02;;;;;;;18.23;5.55;;;12.00;99.90;;;;;;5070087;28;20040;-70
2023/09/30 04:00:28;;;;;;;17.40;5.10;;;11.90;99.90;;;;;;5069068;28;20089;-70
2023/09/30 04:02:58;;;;;;;10.48;4.57;;;11.90;99.90;;;;;;5069162;28;20032;-70
2023/09/30 04:05:36;;;;;;;17.45;5.32;;;11.90;99.90;;;;;;5060462;28;20044;-69
2023/09/30 04:08:02;;;;;;;12.23;5.10;;;11.90;99.90;;;;;;5070093;28;20537;-70
2023/09/30 04:10:29;;;;;;;11.48;4.82;;;11.90;99.90;;;;;;5064878;28;20059;-70
2023/09/30 04:12:55;;;;;;;15.20;4.90;;;12.00;99.90;;;;;;5068060;28;20051;-70
2023/09/30 04:15:21;;;;;;;13.00;5.00;;;12.00;99.90;;;;;;5067800;28;20418;-71
2023/09/30 04:17:48;;;;;;;12.93;4.82;;;12.00;99.90;;;;;;5069767;28;20490;-70
2023/09/30 04:20:20;;;;;;;11.25;5.43;;;11.90;99.90;;;;;;5070463;28;20032;-70
2023/09/30 04:22:48;;;;;;;15.13;5.68;;;12.00;99.90;;;;;;5064824;28;20225;-71
2023/09/30 04:25:16;;;;;;;17.38;5.97;;;11.90;99.90;;;;;;5061628;28;20072;-70
2023/09/30 04:27:42;;;;;;;18.23;6.45;;;11.90;99.90;;;;;;5061334;28;20029;-70
2023/09/30 04:30:09;;;;;;;14.02;5.80;;;11.90;99.90;;;;;;5071880;28;20097;-69
2023/09/30 04:32:38;;;;;;;14.10;5.57;;;11.90;99.90;;;;;;5073943;28;20089;-70
2023/09/30 04:35:10;;;;;;;16.95;6.43;;;11.90;99.90;;;;;;5069298;28;20037;-70
2023/09/30 04:37:36;;;;;;;15.77;6.53;;;11.90;99.90;;;;;;5071188;28;20078;-70
2023/09/30 04:40:07;;;;;;;16.95;6.05;;;11.90;99.90;;;;;;5063509;28;20395;-70
2023/09/30 04:42:34;;;;;;;13.32;6.15;;;11.90;99.90;;;;;;5062699;28;20036;-70
2023/09/30 04:44:59;;;;;;;14.80;5.72;;;11.90;99.90;;;;;;5067476;28;20033;-71
2023/09/30 04:47:26;;;;;;;15.80;6.85;;;11.90;99.90;;;;;;5067961;28;20034;-71
2023/09/30 04:49:51;;;;;;;14.52;6.53;;;11.90;99.90;;;;;;5057139;28;20129;-70
2023/09/30 04:52:17;;;;;;;13.80;6.28;;;11.90;99.90;;;;;;5065442;28;20054;-70
2023/09/30 04:54:44;;;;;;;16.35;6.60;;;11.90;99.90;;;;;;5062668;28;20564;-69
2023/09/30 04:57:10;;;;;;;17.75;5.97;;;11.90;99.90;;;;;;5061813;28;20063;-70
2023/09/30 04:59:35;;;;;;;15.52;6.35;;;11.80;99.90;;;;;;5071201;28;20503;-70
2023/09/30 05:02:01;;;;;;;13.82;6.40;;;11.90;99.90;;;;;;5058725;28;20048;-70
2023/09/30 05:04:27;;;;;;;13.10;6.68;;;11.90;99.90;;;;;;5065146;28;20043;-72
2023/09/30 05:06:52;;;;;;;14.20;5.97;;;11.90;99.90;;;;;;5073136;28;20074;-70
2023/09/30 05:09:18;;;;;;;12.43;6.43;;;11.90;99.90;;;;;;5071596;28;20036;-69
2023/09/30 05:11:44;;;;;;;17.13;6.97;;;11.90;99.90;;;;;;5067600;28;20040;-71
2023/09/30 05:14:09;;;;;;;14.57;6.15;;;11.80;99.90;;;;;;5062737;28;20044;-71
2023/09/30 05:16:35;;;;;;;16.75;6.85;;;11.80;99.90;;;;;;5071492;28;20028;-70
2023/09/30 05:19:01;;;;;;;15.15;6.38;;;11.80;99.90;;;;;;5068587;28;20559;-69
2023/09/30 05:21:26;;;;;;;13.00;6.68;;;11.80;99.90;;;;;;5064664;28;20683;-70
2023/09/30 05:23:52;;;;;;;13.55;6.68;;;11.70;99.90;;;;;;5063725;28;20029;-70
2023/09/30 05:26:18;;;;;;;15.23;6.32;;;11.70;99.90;;;;;;5065581;28;20124;-70
2023/09/30 05:28:43;;;;;;;13.65;6.13;;;11.70;99.90;;;;;;5072695;28;20033;-72
2023/09/30 05:31:09;;;;;;;15.20;6.70;;;11.70;99.90;;;;;;5061529;28;20127;-70
2023/09/30 05:33:36;;;;;;;15.68;6.47;;;11.70;99.90;;;;;;5053822;28;20033;-70
2023/09/30 05:36:02;;;;;;;13.90;6.60;;;11.70;99.90;;;;;;5052442;28;20096;-70
2023/09/30 05:38:30;;;;;;;17.08;7.10;;;11.70;99.90;;;;;;5064819;28;20112;-70
2023/09/30 05:40:58;;;;;;;20.13;6.93;;;11.60;99.90;;;;;;5070248;28;20085;-70
2023/09/30 05:43:24;;;;;;;16.17;6.80;;;11.60;99.90;;;;;;5070409;28;20036;-72
2023/09/30 05:45:54;;;;;;;15.40;6.95;;;11.60;99.90;;;;;;5063677;28;20078;-73
2023/09/30 05:48:20;;;;;;;18.48;7.05;;;11.60;99.90;;;;;;5062821;28;20089;-69
2023/09/30 05:50:47;;;;;;;14.15;7.18;;;11.60;99.90;;;;;;5064867;28;20098;-70
2023/09/30 05:53:13;;;;;;;14.23;7.13;;;11.60;99.90;;;;;;5064802;28;20159;-70
2023/09/30 05:55:42;;;;;;;16.48;7.10;;;11.60;99.90;;;;;;5054656;28;20037;-70
2023/09/30 05:58:09;;;;;;;18.77;6.75;;;11.60;99.90;;;;;;5060540;28;20049;-70
2023/09/30 06:00:35;;;;;;;13.48;6.70;;;11.60;99.90;;;;;;5065954;28;20542;-70
2023/09/30 06:03:01;;;;;;;15.68;7.28;;;11.50;99.90;;;;;;5059485;28;20161;-73
2023/09/30 06:05:30;;;;;;;13.82;6.82;;;11.60;99.90;;;;;;5066590;28;20491;-69
2023/09/30 06:07:55;;;;;;;13.90;7.22;;;11.60;99.90;;;;;;5070596;28;20079;-70
2023/09/30 06:10:21;;;;;;;16.02;7.57;;;11.60;99.90;;;;;;5069708;28;21236;-70
2023/09/30 06:12:48;;;;;;;14.27;6.85;;;11.60;99.90;;;;;;5063070;28;20033;-70
2023/09/30 06:15:21;;;;;;;15.07;7.07;;;11.60;99.90;;;;;;5073959;28;20040;-69
2023/09/30 06:17:48;;;;;;;15.15;6.85;;;11.60;99.90;;;;;;5063707;28;20121;-74
2023/09/30 06:20:17;;;;;;;15.38;7.40;;;11.60;99.90;;;;;;5069380;28;20087;-70
2023/09/30 06:22:49;;;;;;;17.23;7.95;;;11.60;99.90;;;;;;5066664;28;20116;-71
2023/09/30 06:25:18;;;;;;;14.38;7.60;;;11.70;99.90;;;;;;5066724;28;20039;-68
2023/09/30 06:27:47;;;;;;;15.75;7.68;;;11.70;99.90;;;;;;5068161;28;20055;-72
2023/09/30 06:30:15;;;;;;;20.80;8.18;;;11.70;99.90;;;;;;5067834;28;20045;-71
2023/09/30 06:32:41;;;;;;;17.15;8.70;;;11.70;99.90;;;;;;5064328;28;20045;-70
2023/09/30 06:35:10;;;;;;;15.98;7.90;;;11.70;99.90;;;;;;5065394;28;20412;-70
2023/09/30 06:37:37;;;;;;;16.63;8.23;;;11.70;99.90;;;;;;5065353;28;20054;-73
2023/09/30 06:40:04;;;;;;;21.48;8.80;;;11.80;99.90;;;;;;5076168;28;20122;-70
2023/09/30 06:42:31;;;;;;;16.08;7.72;;;11.80;99.90;;;;;;5066289;28;20045;-70
2023/09/30 06:44:57;;;;;;;17.48;7.88;;;11.80;99.90;;;;;;5063602;28;20135;-70
2023/09/30 06:47:23;;;;;;;15.35;8.02;;;11.80;99.90;;;;;;5072964;28;20044;-70
2023/09/30 06:49:49;;;;;;;17.77;8.30;;;11.80;99.90;;;;;;5070338;28;20047;-70
2023/09/30 06:52:15;;;;;;;16.88;7.75;;;11.90;99.90;;;;;;5062483;28;20377;-70
2023/09/30 06:54:41;;;;;;;19.02;8.40;;;11.90;99.90;;;;;;5065923;28;20052;-70
2023/09/30 06:57:08;;;;;;;19.60;9.15;;;11.90;99.90;;;;;;5062772;28;20046;-70
2023/09/30 06:59:33;;;;;;;18.63;8.75;;;12.10;99.90;;;;;;5056745;28;20040;-71
2023/09/30 07:01:59;;;;;;;18.73;9.85;;;12.10;99.90;;;;;;5056851;28;20041;-70
2023/09/30 07:04:26;;;;;;;17.25;8.80;;;12.20;99.90;;;;;;5059029;28;20064;-71
2023/09/30 07:06:53;;;;;;;20.30;9.68;;;12.30;99.90;;;;;;5062643;28;20421;-70
2023/09/30 07:09:19;;;;;;;21.67;10.05;;;12.40;99.90;;;;;;5063233;28;20033;-70
2023/09/30 07:11:45;;;;;;;16.40;8.90;;;12.40;99.90;;;;;;5065660;28;20064;-70
2023/09/30 07:14:11;;;;;;;20.15;9.52;;;12.40;99.90;;;;;;5057918;28;20071;-70
2023/09/30 07:16:37;;;;;;;21.63;10.18;;;12.50;99.90;;;;;;5070297;28;20047;-70
2023/09/30 07:19:03;;;;;;;18.60;10.52;;;12.50;99.90;;;;;;5071098;28;20526;-70
2023/09/30 07:21:28;;;;;;;22.48;10.45;;;12.50;99.90;;;;;;5069541;28;20028;-70
2023/09/30 07:23:54;;;;;;;18.88;10.25;;;12.50;99.90;;;;;;5064568;28;20493;-72
2023/09/30 07:26:29;;;;;;;21.40;10.88;;;12.60;99.90;;;;;;5060649;28;20036;-70
2023/09/30 07:28:56;;;;;;;23.67;10.52;;;12.60;99.90;;;;;;5066123;28;20036;-70
2023/09/30 07:31:23;;;;;;;19.65;10.30;;;12.70;99.90;;;;;;5063904;28;20029;-70
2023/09/30 07:33:49;;;;;;;21.38;10.90;;;12.70;99.90;;;;;;5075680;28;20041;-70
2023/09/30 07:36:14;;;;;;;22.17;11.00;;;12.80;99.90;;;;;;5065847;28;20043;-70
2023/09/30 07:38:40;;;;;;;23.85;11.20;;;12.80;99.90;;;;;;5064955;28;20146;-70
2023/09/30 07:41:06;;;;;;;20.50;11.07;;;12.90;99.90;;;;;;5070983;28;20040;-71
2023/09/30 07:43:31;;;;;;;20.92;12.05;;;12.90;99.90;;;;;;5061191;28;20484;-70
2023/09/30 07:45:57;;;;;;;19.73;11.60;;;12.90;99.90;;;;;;5066991;28;20035;-70
2023/09/30 07:48:25;;;;;;;23.58;11.57;;;13.00;99.90;;;;;;5067891;28;20036;-70
2023/09/30 07:50:50;;;;;;;22.23;11.13;;;13.10;99.90;;;;;;5065573;28;20055;-69
2023/09/30 07:53:16;;;;;;;27.40;12.25;;;13.10;99.90;;;;;;5067454;28;20045;-70
2023/09/30 07:55:41;;;;;;;22.98;12.02;;;13.10;99.90;;;;;;5061678;28;20036;-71
2023/09/30 07:58:07;;;;;;;21.67;11.57;;;13.20;99.90;;;;;;5059590;28;20041;-70
2023/09/30 08:00:33;;;;;;;22.10;10.45;;;13.20;99.90;;;;;;5068259;28;20127;-70
2023/09/30 08:03:00;;;;;;;23.05;12.10;;;13.20;99.90;;;;;;5057691;28;20128;-69
2023/09/30 08:05:26;;;;;;;22.40;12.05;;;13.30;99.90;;;;;;5062599;28;20044;-70
2023/09/30 08:07:52;;;;;;;23.88;12.13;;;13.30;99.90;;;;;;5070315;28;20560;-70
2023/09/30 08:10:18;;;;;;;29.17;13.25;;;13.40;99.90;;;;;;5069122;28;20111;-69
2023/09/30 08:12:48;;;;;;;21.13;11.63;;;13.40;99.90;;;;;;5061429;28;20668;-70
2023/09/30 08:15:14;;;;;;;25.05;13.13;;;13.50;99.90;;;;;;5070560;28;20489;-70
2023/09/30 08:17:40;;;;;;;21.50;12.27;;;13.50;99.90;;;;;;5060753;28;20072;-70
2023/09/30 08:20:06;;;;;;;23.42;12.98;;;13.60;99.90;;;;;;5069677;28;20036;-69
2023/09/30 08:22:32;;;;;;;22.27;12.15;;;13.60;99.90;;;;;;5055365;28;20044;-69
2023/09/30 08:24:58;;;;;;;25.17;11.48;;;13.70;99.90;;;;;;5072863;28;20095;-69
2023/09/30 08:27:24;;;;;;;23.95;12.02;;;13.70;99.90;;;;;;5072783;28;20051;-69
2023/09/30 08:29:50;;;;;;;24.02;11.75;;;13.80;99.90;;;;;;5070626;28;20462;-70
2023/09/30 08:32:15;;;;;;;23.80;12.38;;;13.90;99.90;;;;;;5063683;28;20038;-70
2023/09/30 08:34:41;;;;;;;20.58;11.23;;;13.90;99.90;;;;;;5059407;28;20041;-70
2023/09/30 08:37:07;;;;;;;19.17;11.52;;;14.00;99.90;;;;;;5063832;28;20044;-70
2023/09/30 08:39:37;;;;;;;23.67;11.50;;;14.00;99.90;;;;;;5061155;28;20459;-71
2023/09/30 08:42:06;;;;;;;25.15;11.45;;;14.00;99.90;;;;;;5064554;28;20049;-72
2023/09/30 08:44:31;;;;;;;24.67;11.80;;;14.00;99.90;;;;;;5066734;28;20045;-70
2023/09/30 08:46:58;;;;;;;23.85;11.85;;;14.10;99.90;;;;;;5054998;28;20043;-71
2023/09/30 08:49:25;;;;;;;19.70;11.45;;;14.10;99.90;;;;;;5065761;28;20093;-69
2023/09/30 08:51:51;;;;;;;31.17;11.90;;;14.10;99.90;;;;;;5055715;28;20125;-71
2023/09/30 08:54:17;;;;;;;24.80;12.50;;;14.10;99.90;;;;;;5066451;28;20075;-72
2023/09/30 08:56:47;;;;;;;24.20;11.50;;;14.20;99.90;;;;;;5057273;28;20048;-69
2023/09/30 08:59:14;;;;;;;23.65;12.20;;;14.30;99.90;;;;;;5070227;28;20044;-71
2023/09/30 09:01:40;;;;;;;25.20;11.57;;;14.30;99.90;;;;;;5061877;28;20403;-69
2023/09/30 09:04:07;;;;;;;20.27;11.68;;;14.40;99.90;;;;;;5061718;28;20033;-70
2023/09/30 09:06:32;;;;;;;20.02;11.88;;;14.50;99.90;;;;;;5052852;28;20033;-70
2023/09/30 09:09:18;;;;;;;22.90;12.02;;;14.50;99.90;;;;;;5067486;28;20066;-69
2023/09/30 09:11:46;;;;;;;21.60;11.60;;;14.60;99.90;;;;;;5067709;28;20036;-72
2023/09/30 09:14:12;;;;;;;23.05;12.48;;;14.70;99.90;;;;;;5071534;28;20470;-70
2023/09/30 09:16:52;;;;;;;23.75;11.77;;;14.80;99.90;;;;;;5065569;28;20040;-70
2023/09/30 09:19:18;;;;;;;21.30;10.88;;;14.80;99.90;;;;;;5062293;28;20102;-70
2023/09/30 09:22:00;;;;;;;26.30;12.20;;;14.90;99.90;;;;;;5069884;28;20044;-73
2023/09/30 09:24:46;;;;;;;22.63;11.48;;;15.00;99.90;;;;;;5073467;28;20078;-70
2023/09/30 09:27:16;;;;;;;19.08;10.73;;;15.00;99.90;;;;;;5064798;28;20041;-71
2023/09/30 09:29:44;;;;;;;21.30;11.23;;;15.10;99.90;;;;;;5057946;28;20032;-69
2023/09/30 09:32:17;;;;;;;22.85;11.35;;;15.20;99.90;;;;;;5078136;28;20410;-70
2023/09/30 09:34:44;;;;;;;23.27;10.68;;;15.20;99.90;;;;;;5063987;28;20125;-70
2023/09/30 09:37:18;;;;;;;22.55;10.82;;;15.30;99.90;;;;;;5067033;28;20098;-73
2023/09/30 09:39:57;;;;;;;23.27;10.57;;;15.30;99.90;;;;;;5061518;28;20466;-70
2023/09/30 09:42:32;;;;;;;22.95;10.95;;;15.50;99.90;;;;;;5066627;28;20036;-71
2023/09/30 09:45:00;;;;;;;18.40;9.70;;;15.60;99.90;;;;;;5066785;28;20086;-70
2023/09/30 09:47:26;;;;;;;16.73;8.15;;;15.70;99.90;;;;;;5072148;28;20498;-70
2023/09/30 09:49:53;;;;;;;19.15;9.45;;;15.80;99.90;;;;;;5063923;28;20043;-69
2023/09/30 09:52:19;;;;;;;15.70;8.30;;;15.90;99.90;;;;;;5069033;28;20040;-72
2023/09/30 09:54:48;;;;;;;17.83;8.65;;;16.10;99.90;;;;;;5059810;28;20450;-70
2023/09/30 09:57:14;;;;;;;;;;;16.30;99.90;;;;;;5067997;28;20041;-70
2023/09/30 09:59:40;;;;;;;17.02;8.10;;;16.50;99.90;;;;;;5070803;28;19974;-70
2023/09/30 10:02:14;;;;;;;14.27;8.25;;;16.70;99.90;;;;;;5072848;28;20050;-72
2023/09/30 10:04:44;;;;;;;14.68;7.32;;;16.90;99.90;;;;;;5069301;28;20033;-70
2023/09/30 10:07:22;;;;;;;15.63;6.82;;;17.10;99.90;;;;;;5062977;28;20048;-70
2023/09/30 10:09:51;;;;;;;13.32;6.22;;;17.30;99.90;;;;;;5071458;28;20032;-70
2023/09/30 10:12:18;;;;;;;14.77;6.28;;;17.50;99.90;;;;;;5069244;28;20055;-70
2023/09/30 10:14:44;;;;;;;15.63;6.03;;;17.70;99.90;;;;;;5060683;28;20498;-70
2023/09/30 10:17:10;;;;;;;14.68;5.95;;;17.80;99.90;;;;;;5072471;28;20052;-70
2023/09/30 10:19:35;;;;;;;14.52;5.63;;;18.00;99.90;;;;;;5056289;28;20040;-71
2023/09/30 10:22:19;;;;;;;13.02;5.68;;;18.20;99.90;;;;;;5058621;28;20410;-70
2023/09/30 10:24:49;;;;;;;12.25;5.30;;;18.30;99.90;;;;;;5068427;28;20084;-70
2023/09/30 10:27:28;;;;;;;14.10;5.43;;;18.40;99.90;;;;;;5060250;28;20037;-70
2023/09/30 10:30:10;;;;;;;13.57;5.18;;;18.50;99.90;;;;;;5072215;28;20032;-71
2023/09/30 10:32:50;;;;;;;14.13;5.47;;;18.60;99.90;;;;;;5057654;28;20507;-70
2023/09/30 10:35:31;;;;;;;13.13;4.50;;;18.60;99.90;;;;;;5063344;28;20086;-70
2023/09/30 10:38:23;;;;;;;10.15;4.18;;;18.70;99.90;;;;;;5057174;28;20048;-71
2023/09/30 10:40:52;;;;;;;12.65;4.03;;;18.90;99.90;;;;;;5056630;28;20512;-71
2023/09/30 10:43:40;;;;;;;12.75;4.13;;;19.00;99.90;;;;;;5061825;28;20037;-74
2023/09/30 10:46:27;;;;;;;11.93;3.47;;;19.10;99.90;;;;;;5057006;28;20071;-71
2023/09/30 10:48:53;;;;;;;9.05;3.30;;;19.10;99.90;;;;;;5054563;28;20395;-67
2023/09/30 10:51:22;;;;;;;9.07;3.25;;;19.20;99.90;;;;;;5054676;28;20044;-67
2023/09/30 10:54:00;;;;;;;10.65;3.60;;;19.30;99.90;;;;;;5061696;28;20037;-67
2023/09/30 10:56:33;;;;;;;10.10;4.25;;;19.40;99.90;;;;;;5063814;28;20040;-67
2023/09/30 10:59:00;;;;;;;6.75;3.05;;;19.60;99.90;;;;;;5064703;28;20043;-67
2023/09/30 11:01:32;;;;;;;9.98;3.35;;;19.70;99.90;;;;;;5064131;28;20041;-67
2023/09/30 11:04:03;;;;;;;8.60;2.88;;;19.70;99.90;;;;;;5066767;28;20392;-67
2023/09/30 11:06:29;;;;;;;11.68;3.45;;;19.90;99.90;;;;;;5063628;28;20383;-67
2023/09/30 11:08:59;;;;;;;9.35;2.63;;;19.90;99.90;;;;;;5064982;28;20040;-68
2023/09/30 11:11:39;;;;;;;7.50;2.58;;;19.90;99.90;;;;;;5061261;28;20028;-67
2023/09/30 11:14:27;;;;;;;8.52;2.55;;;19.90;99.90;;;;;;5060406;28;20037;-67
2023/09/30 11:16:54;;;;;;;8.68;3.20;;;19.90;99.90;;;;;;5065261;28;20037;-67
2023/09/30 11:19:21;;;;;;;9.23;2.67;;;19.90;99.90;;;;;;5059272;28;20093;-67
2023/09/30 11:21:53;;;;;;;7.78;2.55;;;20.00;99.90;;;;;;5057876;28;20040;-67
2023/09/30 11:24:19;;;;;;;9.85;2.92;;;20.00;99.90;;;;;;5067671;28;20032;-67
2023/09/30 11:26:46;;;;;;;8.13;2.70;;;20.00;99.90;;;;;;5060758;28;20139;-68
2023/09/30 11:29:13;;;;;;;7.78;2.08;;;19.90;99.90;;;;;;5063140;28;20067;-68
2023/09/30 11:31:41;;;;;;;7.30;2.45;;;19.80;99.90;;;;;;5068689;28;20037;-67
2023/09/30 11:34:07;;;;;;;9.68;2.88;;;19.60;99.90;;;;;;5065136;28;20105;-67
2023/09/30 11:36:38;;;;;;;6.95;2.13;;;19.40;99.90;;;;;;5063043;28;20040;-67
2023/09/30 11:39:04;;;;;;;9.30;2.17;;;19.10;99.90;;;;;;5058883;28;20039;-67
2023/09/30 11:41:43;;;;;;;9.15;2.17;;;18.80;99.90;;;;;;5066780;28;20436;-67
2023/09/30 11:44:12;;;;;;;10.48;2.42;;;18.60;99.90;;;;;;5063379;28;20395;-67
2023/09/30 11:47:04;;;;;;;7.50;2.20;;;18.50;99.90;;;;;;5059400;28;20106;-67
2023/09/30 11:49:38;;;;;;;9.65;2.97;;;18.50;99.90;;;;;;5055627;28;20444;-67
2023/09/30 11:52:07;;;;;;;7.05;1.98;;;18.70;99.90;;;;;;5059305;28;20036;-67
2023/09/30 11:54:37;;;;;;;9.55;2.42;;;18.90;99.90;;;;;;5065699;28;20055;-67
2023/09/30 11:57:03;;;;;;;7.70;2.25;;;19.10;99.90;;;;;;5063434;28;20522;-67
2023/09/30 11:59:29;;;;;;;7.68;2.38;;;19.30;99.90;;;;;;5059767;28;20036;-67
2023/09/30 12:01:55;;;;;;;9.65;2.15;;;19.50;99.90;;;;;;5066015;28;20048;-67
2023/09/30 12:04:21;;;;;;;9.07;2.45;;;19.70;99.90;;;;;;5060559;28;20033;-67
2023/09/30 12:06:50;;;;;;;6.78;2.13;;;19.80;99.90;;;;;;5065614;28;20484;-67
2023/09/30 12:09:16;;;;;;;6.03;1.65;;;20.00;99.90;;;;;;5067360;28;20123;-67
2023/09/30 12:11:45;;;;;;;9.73;3.00;;;20.20;99.90;;;;;;5067613;28;20029;-67
2023/09/30 12:14:12;;;;;;;9.30;2.22;;;20.30;99.90;;;;;;5065782;28;20033;-67
2023/09/30 12:16:38;;;;;;;9.82;2.55;;;20.40;99.90;;;;;;5067182;28;20430;-67
2023/09/30 12:19:05;;;;;;;6.95;2.10;;;20.40;99.90;;;;;;5058274;28;20055;-67
2023/09/30 12:21:31;;;;;;;9.68;2.22;;;20.30;99.90;;;;;;5069720;28;20044;-67
2023/09/30 12:23:57;;;;;;;7.68;2.03;;;20.40;99.90;;;;;;5068868;28;20032;-67
2023/09/30 12:26:24;;;;;;;6.45;2.20;;;20.50;99.90;;;;;;5058222;28;20535;-67
2023/09/30 12:28:49;;;;;;;11.13;2.20;;;20.40;99.90;;;;;;5062784;28;20040;-67
2023/09/30 12:31:15;;;;;;;8.02;2.10;;;20.50;99.90;;;;;;5069080;28;20106;-67
2023/09/30 12:33:41;;;;;;;5.65;2.17;;;20.60;99.90;;;;;;5066902;28;20102;-67
2023/09/30 12:36:07;;;;;;;7.25;2.17;;;20.70;99.90;;;;;;5070710;28;20516;-67
2023/09/30 12:38:33;;;;;;;9.23;2.33;;;20.80;99.90;;;;;;5068020;28;20667;-67